createdAt,value
2023-03-19T00:00:53.872Z,11.25
2023-03-19T00:03:22.233Z,11.30
2023-03-19T00:05:53.809Z,11.25
2023-03-19T00:08:23.719Z,11.22
2023-03-19T00:10:52.268Z,11.19
2023-03-19T00:13:21.013Z,11.23
2023-03-19T00:15:49.023Z,11.18
2023-03-19T00:18:17.133Z,11.15
2023-03-19T00:20:44.937Z,11.00
2023-03-19T00:23:13.582Z,10.99
2023-03-19T00:25:42.240Z,10.96
2023-03-19T00:28:10.210Z,10.96
2023-03-19T00:30:38.329Z,10.84
2023-03-19T00:33:06.782Z,10.57
2023-03-19T00:35:34.751Z,10.45
2023-03-19T00:38:03.012Z,10.40
2023-03-19T00:40:33.605Z,10.46
2023-03-19T00:43:01.740Z,10.42
2023-03-19T00:45:30.996Z,10.43
2023-03-19T00:47:59.916Z,10.44
2023-03-19T00:50:27.943Z,10.55
2023-03-19T00:52:55.824Z,10.61
2023-03-19T00:55:25.725Z,10.59
2023-03-19T00:57:53.594Z,10.64
2023-03-19T01:00:22.610Z,10.52
2023-03-19T01:02:50.674Z,10.32
2023-03-19T01:05:18.889Z,10.30
2023-03-19T01:07:46.933Z,10.44
2023-03-19T01:10:22.195Z,10.42
2023-03-19T01:12:51.530Z,10.59
2023-03-19T01:15:19.967Z,10.78
2023-03-19T01:17:47.948Z,10.80
2023-03-19T01:20:18.785Z,10.64
2023-03-19T01:22:47.379Z,10.51
2023-03-19T01:25:14.958Z,10.46
2023-03-19T01:27:52.424Z,10.58
2023-03-19T01:30:21.786Z,10.68
2023-03-19T01:33:08.299Z,10.71
2023-03-19T01:36:02.584Z,10.44
2023-03-19T01:38:36.767Z,10.16
2023-03-19T01:41:07.978Z,10.09
2023-03-19T01:43:36.700Z,10.23
2023-03-19T01:46:38.187Z,10.41
2023-03-19T01:49:20.135Z,10.55
2023-03-19T01:51:54.566Z,10.67
2023-03-19T01:54:49.260Z,10.70
2023-03-19T01:57:36.802Z,10.66
2023-03-19T02:00:12.571Z,10.48
2023-03-19T02:02:53.763Z,10.33
2023-03-19T02:05:57.872Z,10.39
2023-03-19T02:08:26.079Z,10.44
2023-03-19T02:10:56.149Z,10.42
2023-03-19T02:13:24.748Z,10.35
2023-03-19T02:15:53.766Z,10.37
2023-03-19T02:18:24.595Z,10.00
2023-03-19T02:21:10.338Z,10.02
2023-03-19T02:24:02.873Z,10.21
2023-03-19T02:26:58.010Z,10.24
2023-03-19T02:29:26.598Z,9.94
2023-03-19T02:31:54.925Z,9.90
2023-03-19T02:34:22.760Z,10.03
2023-03-19T02:37:07.981Z,9.99
2023-03-19T02:39:48.682Z,9.77
2023-03-19T02:42:19.247Z,9.80
2023-03-19T02:44:47.844Z,9.62
2023-03-19T02:47:16.344Z,9.56
2023-03-19T02:49:46.166Z,9.67
2023-03-19T02:52:14.001Z,9.81
2023-03-19T02:54:42.175Z,9.86
2023-03-19T02:57:09.821Z,9.91
2023-03-19T02:59:39.160Z,9.94
2023-03-19T03:02:08.419Z,9.98
2023-03-19T03:04:37.433Z,9.96
2023-03-19T03:07:06.284Z,10.10
2023-03-19T03:09:34.559Z,10.30
2023-03-19T03:12:03.350Z,10.23
2023-03-19T03:14:31.731Z,10.25
2023-03-19T03:17:00.510Z,10.16
2023-03-19T03:19:28.172Z,10.09
2023-03-19T03:21:56.506Z,10.31
2023-03-19T03:24:24.600Z,10.30
2023-03-19T03:26:52.286Z,10.44
2023-03-19T03:29:21.622Z,10.39
2023-03-19T03:31:50.518Z,10.32
2023-03-19T03:34:18.325Z,10.18
2023-03-19T03:36:49.632Z,10.14
2023-03-19T03:39:19.167Z,10.10
2023-03-19T03:41:46.812Z,10.12
2023-03-19T03:44:14.456Z,10.32
2023-03-19T03:46:43.589Z,10.58
2023-03-19T03:49:11.787Z,10.53
2023-03-19T03:51:39.843Z,10.45
2023-03-19T03:54:08.244Z,10.42
2023-03-19T03:56:36.519Z,10.44
2023-03-19T03:59:04.088Z,10.52
2023-03-19T04:01:31.774Z,10.62
2023-03-19T04:04:00.136Z,10.65
2023-03-19T04:06:29.390Z,10.59
2023-03-19T04:09:27.257Z,10.47
2023-03-19T04:11:55.010Z,10.28
2023-03-19T04:14:23.223Z,10.23
2023-03-19T04:16:51.298Z,10.20
2023-03-19T04:19:20.379Z,10.20
2023-03-19T04:21:48.824Z,10.09
2023-03-19T04:24:17.257Z,9.96
2023-03-19T04:26:47.206Z,9.89
2023-03-19T04:29:15.722Z,9.81
2023-03-19T04:31:45.551Z,9.61
2023-03-19T04:34:13.089Z,9.54
2023-03-19T04:36:41.464Z,9.59
2023-03-19T04:39:10.115Z,9.53
2023-03-19T04:41:38.734Z,9.64
2023-03-19T04:44:25.411Z,9.57
2023-03-19T04:46:53.919Z,9.77
2023-03-19T04:49:22.897Z,9.84
2023-03-19T04:51:52.346Z,9.93
2023-03-19T04:54:21.468Z,9.90
2023-03-19T04:56:49.663Z,9.89
2023-03-19T04:59:17.875Z,9.86
2023-03-19T05:01:46.037Z,9.94
2023-03-19T05:04:16.153Z,9.91
2023-03-19T05:06:44.457Z,9.86
2023-03-19T05:09:12.207Z,9.94
2023-03-19T05:11:40.506Z,9.98
2023-03-19T05:14:16.596Z,10.06
2023-03-19T05:17:11.175Z,9.73
2023-03-19T05:20:09.739Z,9.64
2023-03-19T05:22:39.725Z,9.87
2023-03-19T05:25:08.945Z,9.90
2023-03-19T05:27:40.210Z,10.02
2023-03-19T05:30:11.132Z,10.07
2023-03-19T05:32:42.297Z,10.03
2023-03-19T05:35:17.626Z,9.88
2023-03-19T05:37:46.077Z,9.90
2023-03-19T05:40:13.936Z,9.78
2023-03-19T05:42:46.283Z,9.72
2023-03-19T05:45:17.429Z,9.81
2023-03-19T05:47:50.620Z,9.72
2023-03-19T05:50:20.429Z,9.40
2023-03-19T05:53:06.777Z,9.23
2023-03-19T05:55:36.876Z,9.34
2023-03-19T05:58:08.185Z,9.50
2023-03-19T06:00:36.842Z,9.54
2023-03-19T06:03:05.554Z,9.55
2023-03-19T06:05:52.158Z,9.54
2023-03-19T06:08:33.093Z,9.77
2023-03-19T06:11:21.098Z,9.83
2023-03-19T06:14:01.876Z,9.91
2023-03-19T06:16:32.009Z,9.78
2023-03-19T06:19:00.991Z,9.91
2023-03-19T06:21:29.739Z,9.95
2023-03-19T06:24:01.178Z,9.88
2023-03-19T06:26:35.030Z,10.01
2023-03-19T06:29:07.740Z,10.04
2023-03-19T06:31:36.385Z,10.17
2023-03-19T06:34:12.680Z,10.33
2023-03-19T06:36:42.778Z,10.49
2023-03-19T06:39:13.813Z,10.67
2023-03-19T06:41:42.364Z,10.69
2023-03-19T06:44:17.572Z,10.83
2023-03-19T06:46:45.572Z,11.00
2023-03-19T06:49:13.182Z,11.02
2023-03-19T06:51:40.929Z,10.88
2023-03-19T06:54:08.917Z,11.12
2023-03-19T06:56:36.692Z,11.09
2023-03-19T06:59:05.138Z,11.16
2023-03-19T07:01:32.981Z,11.36
2023-03-19T07:04:01.039Z,11.47
2023-03-19T07:06:30.177Z,11.54
2023-03-19T07:08:58.553Z,11.62
2023-03-19T07:11:26.423Z,11.71
2023-03-19T07:13:54.697Z,11.77
2023-03-19T07:16:23.477Z,12.06
2023-03-19T07:18:51.132Z,11.95
2023-03-19T07:21:19.262Z,12.01
2023-03-19T07:23:47.387Z,12.09
2023-03-19T07:26:15.482Z,12.12
2023-03-19T07:28:43.713Z,11.82
2023-03-19T07:31:11.882Z,12.23
2023-03-19T07:33:40.451Z,12.29
2023-03-19T07:36:08.896Z,12.09
2023-03-19T07:38:36.576Z,12.15
2023-03-19T07:41:04.483Z,12.26
2023-03-19T07:43:32.444Z,12.40
2023-03-19T07:46:01.614Z,12.36
2023-03-19T07:48:29.737Z,12.70
2023-03-19T07:50:57.948Z,12.95
2023-03-19T07:53:26.177Z,13.15
2023-03-19T07:55:53.835Z,13.28
2023-03-19T07:58:21.677Z,13.45
2023-03-19T08:00:49.886Z,13.69
2023-03-19T08:03:18.484Z,13.24
2023-03-19T08:05:50.136Z,13.22
2023-03-19T08:08:18.139Z,13.08
2023-03-19T08:10:47.532Z,12.99
2023-03-19T08:13:15.208Z,13.10
2023-03-19T08:15:42.900Z,13.22
2023-03-19T08:18:11.601Z,13.09
2023-03-19T08:20:39.199Z,13.36
2023-03-19T08:23:07.422Z,13.31
2023-03-19T08:25:35.037Z,13.29
2023-03-19T08:28:03.105Z,13.54
2023-03-19T08:30:32.271Z,13.85
2023-03-19T08:33:00.188Z,14.09
2023-03-19T08:35:28.265Z,14.27
2023-03-19T08:37:57.030Z,14.06
2023-03-19T08:40:25.722Z,14.27
2023-03-19T08:42:54.622Z,14.25
2023-03-19T08:45:23.880Z,14.25
2023-03-19T08:47:52.057Z,14.19
2023-03-19T08:50:19.923Z,14.54
2023-03-19T08:52:48.579Z,14.79
2023-03-19T08:55:17.285Z,14.82
2023-03-19T08:57:45.052Z,14.64
2023-03-19T09:00:13.503Z,14.50
2023-03-19T09:02:41.230Z,14.36
2023-03-19T09:05:09.323Z,14.38
2023-03-19T09:07:37.396Z,14.60
2023-03-19T09:10:05.800Z,14.70
2023-03-19T09:12:33.979Z,14.74
2023-03-19T09:15:02.124Z,14.84
2023-03-19T09:17:29.841Z,14.71
2023-03-19T09:19:58.890Z,15.18
2023-03-19T09:22:26.599Z,15.08
2023-03-19T09:24:54.209Z,15.69
2023-03-19T09:27:22.285Z,15.64
2023-03-19T09:29:50.682Z,15.76
2023-03-19T09:32:18.340Z,15.72
2023-03-19T09:34:47.788Z,15.43
2023-03-19T09:37:15.864Z,15.48
2023-03-19T09:39:44.577Z,15.89
2023-03-19T09:42:31.078Z,15.17
2023-03-19T09:44:59.041Z,15.60
2023-03-19T09:47:35.443Z,15.64
2023-03-19T09:50:16.420Z,15.13
2023-03-19T09:53:23.101Z,15.41
2023-03-19T09:55:54.519Z,15.76
2023-03-19T09:58:30.921Z,15.35
2023-03-19T10:01:01.150Z,14.96
2023-03-19T10:03:51.482Z,15.59
2023-03-19T10:06:26.874Z,16.34
2023-03-19T10:09:20.101Z,16.86
2023-03-19T10:11:57.852Z,16.96
2023-03-19T10:14:37.896Z,17.23
2023-03-19T10:17:12.800Z,17.96
2023-03-19T10:20:16.696Z,18.43
2023-03-19T10:22:55.553Z,18.08
2023-03-19T10:25:27.846Z,18.74
2023-03-19T10:28:01.646Z,19.90
2023-03-19T10:30:32.727Z,19.82
2023-03-19T10:33:24.916Z,20.80
2023-03-19T10:36:06.440Z,21.44
2023-03-19T10:38:40.662Z,20.46
2023-03-19T10:41:23.865Z,20.66
2023-03-19T10:44:04.388Z,20.71
2023-03-19T10:46:40.651Z,21.58
2023-03-19T10:49:16.533Z,21.17
2023-03-19T10:51:46.307Z,21.85
2023-03-19T10:54:24.949Z,23.12
2023-03-19T10:56:57.489Z,23.88
2023-03-19T10:59:30.984Z,23.07
2023-03-19T11:02:00.076Z,24.23
2023-03-19T11:04:29.859Z,23.24
2023-03-19T11:07:09.804Z,24.33
2023-03-19T11:09:41.702Z,25.20
2023-03-19T11:12:29.585Z,25.85
2023-03-19T11:14:58.886Z,24.46
2023-03-19T11:17:57.460Z,24.07
2023-03-19T11:20:35.581Z,24.55
2023-03-19T11:23:09.427Z,24.19
2023-03-19T11:25:38.915Z,24.19
2023-03-19T11:28:09.589Z,23.80
2023-03-19T11:30:44.118Z,24.89
2023-03-19T11:33:31.800Z,25.92
2023-03-19T11:36:14.111Z,25.07
2023-03-19T11:39:19.847Z,25.38
2023-03-19T11:42:21.943Z,25.05
2023-03-19T11:45:20.767Z,24.03
2023-03-19T11:48:20.321Z,25.22
2023-03-19T11:50:59.268Z,25.71
2023-03-19T11:53:32.599Z,25.32
2023-03-19T11:56:52.946Z,25.46
2023-03-19T11:59:36.671Z,25.84
2023-03-19T12:02:07.472Z,25.59
2023-03-19T12:05:02.955Z,26.16
2023-03-19T12:07:43.396Z,27.19
2023-03-19T12:10:30.440Z,26.27
2023-03-19T12:13:19.741Z,24.92
2023-03-19T12:16:06.018Z,22.20
2023-03-19T12:18:52.455Z,21.24
2023-03-19T12:21:29.888Z,21.19
2023-03-19T12:24:00.697Z,20.69
2023-03-19T12:26:50.985Z,20.54
2023-03-19T12:29:31.222Z,20.83
2023-03-19T12:32:10.276Z,20.03
2023-03-19T12:34:46.599Z,19.67
2023-03-19T12:37:35.654Z,19.42
2023-03-19T12:40:35.022Z,19.57
2023-03-19T12:43:07.930Z,18.46
2023-03-19T12:45:51.325Z,19.12
2023-03-19T12:48:41.720Z,19.07
2023-03-19T12:51:13.899Z,18.32
2023-03-19T12:53:56.459Z,18.63
2023-03-19T12:56:59.950Z,19.69
2023-03-19T12:59:59.961Z,20.73
2023-03-19T13:02:54.568Z,21.33
2023-03-19T13:06:08.877Z,22.19
2023-03-19T13:09:05.047Z,21.36
2023-03-19T13:11:39.387Z,21.63
2023-03-19T13:14:26.832Z,22.47
2023-03-19T13:17:05.213Z,22.95
2023-03-19T13:19:48.205Z,24.30
2023-03-19T13:22:22.216Z,24.44
2023-03-19T13:24:52.313Z,23.15
2023-03-19T13:27:36.422Z,23.30
2023-03-19T13:30:17.885Z,22.95
2023-03-19T13:33:02.373Z,23.71
2023-03-19T13:35:40.809Z,25.15
2023-03-19T13:38:15.507Z,26.67
2023-03-19T13:41:01.275Z,26.80
2023-03-19T13:43:29.583Z,26.01
2023-03-19T13:46:12.372Z,23.96
2023-03-19T13:48:45.798Z,22.46
2023-03-19T13:51:20.399Z,21.28
2023-03-19T13:53:54.818Z,24.05
2023-03-19T13:56:29.970Z,25.67
2023-03-19T13:59:24.355Z,26.31
2023-03-19T14:01:52.805Z,23.35
2023-03-19T14:04:35.303Z,23.25
2023-03-19T14:07:19.304Z,21.92
2023-03-19T14:10:00.183Z,20.04
2023-03-19T14:12:39.977Z,19.94
2023-03-19T14:15:11.332Z,20.00
2023-03-19T14:17:54.985Z,19.30
2023-03-19T14:20:37.556Z,18.54
2023-03-19T14:23:08.921Z,19.15
2023-03-19T14:26:07.325Z,19.64
2023-03-19T14:29:13.529Z,19.07
2023-03-19T14:31:53.691Z,19.66
2023-03-19T14:34:22.428Z,19.49
2023-03-19T14:37:17.761Z,19.24
2023-03-19T14:39:53.022Z,19.56
2023-03-19T14:42:27.273Z,19.42
2023-03-19T14:45:14.535Z,19.75
2023-03-19T14:48:21.060Z,19.71
2023-03-19T14:51:07.350Z,19.53
2023-03-19T14:53:46.855Z,18.71
2023-03-19T14:56:24.372Z,18.34
2023-03-19T14:58:57.010Z,17.73
2023-03-19T15:01:30.077Z,17.75
2023-03-19T15:04:04.881Z,17.73
2023-03-19T15:06:36.508Z,17.95
2023-03-19T15:09:16.253Z,17.99
2023-03-19T15:11:43.883Z,17.72
2023-03-19T15:14:33.661Z,17.82
2023-03-19T15:17:04.860Z,17.71
2023-03-19T15:19:35.956Z,17.44
2023-03-19T15:22:17.093Z,16.75
2023-03-19T15:24:45.050Z,17.06
2023-03-19T15:27:24.596Z,17.03
2023-03-19T15:29:53.976Z,17.00
2023-03-19T15:33:09.021Z,16.77
2023-03-19T15:35:34.037Z,16.76
2023-03-19T15:38:09.375Z,16.62
2023-03-19T15:40:39.160Z,16.60
2023-03-19T15:43:11.226Z,16.69
2023-03-19T15:45:42.755Z,16.86
2023-03-19T15:48:25.637Z,16.57
2023-03-19T15:51:01.594Z,16.54
2023-03-19T15:53:33.584Z,16.82
2023-03-19T15:56:03.642Z,16.89
2023-03-19T15:58:40.148Z,16.99
2023-03-19T16:01:10.807Z,16.78
2023-03-19T16:03:41.819Z,16.46
2023-03-19T16:06:29.413Z,16.74
2023-03-19T16:09:15.660Z,16.68
2023-03-19T16:11:46.150Z,17.01
2023-03-19T16:14:14.227Z,16.74
2023-03-19T16:16:45.343Z,16.78
2023-03-19T16:19:32.777Z,16.40
2023-03-19T16:22:02.207Z,16.36
2023-03-19T16:24:43.128Z,16.47
2023-03-19T16:27:14.205Z,16.43
2023-03-19T16:29:46.561Z,16.46
2023-03-19T16:32:22.961Z,16.48
2023-03-19T16:34:56.046Z,16.25
2023-03-19T16:37:56.441Z,16.17
2023-03-19T16:40:25.239Z,16.12
2023-03-19T16:42:56.247Z,16.34
2023-03-19T16:45:29.637Z,15.96
2023-03-19T16:48:01.002Z,15.97
2023-03-19T16:50:32.095Z,16.17
2023-03-19T16:53:02.280Z,16.00
2023-03-19T16:55:37.027Z,15.99
2023-03-19T16:58:16.267Z,15.85
2023-03-19T17:00:45.318Z,15.71
2023-03-19T17:03:15.891Z,15.88
2023-03-19T17:05:46.111Z,15.86
2023-03-19T17:08:15.014Z,15.87
2023-03-19T17:10:49.281Z,15.80
2023-03-19T17:13:28.128Z,15.82
2023-03-19T17:16:02.841Z,15.97
2023-03-19T17:18:35.276Z,15.93
2023-03-19T17:21:11.239Z,15.91
2023-03-19T17:23:39.336Z,15.82
2023-03-19T17:26:19.897Z,15.96
2023-03-19T17:28:48.287Z,15.96
2023-03-19T17:31:25.733Z,15.94
2023-03-19T17:34:01.395Z,15.92
2023-03-19T17:36:29.478Z,15.80
2023-03-19T17:38:57.551Z,15.67
2023-03-19T17:41:26.042Z,15.74
2023-03-19T17:43:54.743Z,15.95
2023-03-19T17:46:25.294Z,15.83
2023-03-19T17:48:54.095Z,15.70
2023-03-19T17:51:23.935Z,15.77
2023-03-19T17:53:54.350Z,15.94
2023-03-19T17:56:25.631Z,15.86
2023-03-19T17:58:54.672Z,15.78
2023-03-19T18:01:27.345Z,15.81
2023-03-19T18:03:57.977Z,15.83
2023-03-19T18:06:31.955Z,15.05
2023-03-19T18:08:59.630Z,14.92
2023-03-19T18:11:27.837Z,14.60
2023-03-19T18:13:56.021Z,14.43
2023-03-19T18:16:29.173Z,14.30
2023-03-19T18:19:01.245Z,14.26
2023-03-19T18:21:31.146Z,14.23
2023-03-19T18:23:58.943Z,13.98
2023-03-19T18:26:27.141Z,13.85
2023-03-19T18:28:55.592Z,13.87
2023-03-19T18:31:25.892Z,13.98
2023-03-19T18:34:02.997Z,13.88
2023-03-19T18:36:32.988Z,14.02
2023-03-19T18:39:00.759Z,13.90
2023-03-19T18:41:29.686Z,13.97
2023-03-19T18:44:08.144Z,13.94
2023-03-19T18:46:37.797Z,14.15
2023-03-19T18:49:24.851Z,13.65
2023-03-19T18:52:08.664Z,13.90
2023-03-19T18:54:36.835Z,13.90
2023-03-19T18:57:05.871Z,13.90
2023-03-19T18:59:34.065Z,13.87
2023-03-19T19:02:27.003Z,14.12
2023-03-19T19:04:55.032Z,14.27
2023-03-19T19:07:22.678Z,14.20
2023-03-19T19:09:51.592Z,13.96
2023-03-19T19:12:20.012Z,14.03
2023-03-19T19:14:48.724Z,14.14
2023-03-19T19:17:19.843Z,14.14
2023-03-19T19:19:48.336Z,14.18
2023-03-19T19:22:18.172Z,14.19
2023-03-19T19:24:46.659Z,14.15
2023-03-19T19:27:20.967Z,14.08
2023-03-19T19:29:50.173Z,13.50
2023-03-19T19:32:26.475Z,13.48
2023-03-19T19:34:54.690Z,13.78
2023-03-19T19:37:23.683Z,13.91
2023-03-19T19:39:53.219Z,13.90
2023-03-19T19:42:23.466Z,13.92
2023-03-19T19:44:54.270Z,13.87
2023-03-19T19:47:22.122Z,13.63
2023-03-19T19:49:50.950Z,13.61
2023-03-19T19:52:19.873Z,13.56
2023-03-19T19:54:48.445Z,13.44
2023-03-19T19:57:27.209Z,13.54
2023-03-19T19:59:56.010Z,13.48
2023-03-19T20:02:28.823Z,13.66
2023-03-19T20:04:59.099Z,13.72
2023-03-19T20:07:27.427Z,13.81
2023-03-19T20:09:55.141Z,13.69
2023-03-19T20:12:31.147Z,13.66
2023-03-19T20:15:00.463Z,13.76
2023-03-19T20:17:29.042Z,13.60
2023-03-19T20:19:57.559Z,13.65
2023-03-19T20:22:25.722Z,13.51
2023-03-19T20:24:53.827Z,13.50
2023-03-19T20:27:28.867Z,13.55
2023-03-19T20:29:56.936Z,13.59
2023-03-19T20:32:32.797Z,13.49
2023-03-19T20:35:02.036Z,13.46
2023-03-19T20:37:31.150Z,13.42
2023-03-19T20:39:59.705Z,13.35
2023-03-19T20:42:32.094Z,13.37
2023-03-19T20:45:01.529Z,13.21
2023-03-19T20:47:29.424Z,13.32
2023-03-19T20:49:57.410Z,13.25
2023-03-19T20:52:26.096Z,13.24
2023-03-19T20:54:54.837Z,13.07
2023-03-19T20:57:29.313Z,13.07
2023-03-19T21:00:02.104Z,13.13
2023-03-19T21:02:29.965Z,13.07
2023-03-19T21:04:58.727Z,13.15
2023-03-19T21:07:34.665Z,13.24
2023-03-19T21:10:07.891Z,13.24
2023-03-19T21:12:36.579Z,13.12
2023-03-19T21:15:04.458Z,13.22
2023-03-19T21:17:32.153Z,13.24
2023-03-19T21:20:00.758Z,13.31
2023-03-19T21:22:30.782Z,13.41
2023-03-19T21:25:06.171Z,13.39
2023-03-19T21:27:36.980Z,13.20
2023-03-19T21:30:05.948Z,13.23
2023-03-19T21:32:33.693Z,13.22
2023-03-19T21:35:01.814Z,13.22
2023-03-19T21:37:29.816Z,13.21
2023-03-19T21:39:57.968Z,13.19
2023-03-19T21:42:26.892Z,13.15
2023-03-19T21:44:59.598Z,12.97
2023-03-19T21:47:27.298Z,12.99
2023-03-19T21:49:56.504Z,12.99
2023-03-19T21:52:24.190Z,13.03
2023-03-19T21:54:52.396Z,13.07
2023-03-19T21:57:20.780Z,13.09
2023-03-19T21:59:48.925Z,13.04
2023-03-19T22:02:23.348Z,12.88
2023-03-19T22:04:51.389Z,12.73
2023-03-19T22:07:19.105Z,12.60
2023-03-19T22:09:46.760Z,12.55
2023-03-19T22:12:26.085Z,12.48
2023-03-19T22:14:54.820Z,12.40
2023-03-19T22:17:26.160Z,12.36
2023-03-19T22:19:53.812Z,12.46
2023-03-19T22:22:21.939Z,12.56
2023-03-19T22:24:49.734Z,12.56
2023-03-19T22:27:17.884Z,12.46
2023-03-19T22:29:47.038Z,12.43
2023-03-19T22:32:18.068Z,12.43
2023-03-19T22:34:45.938Z,12.46
2023-03-19T22:37:29.258Z,12.51
2023-03-19T22:39:57.525Z,12.49
2023-03-19T22:42:26.880Z,12.30
2023-03-19T22:44:54.868Z,12.40
2023-03-19T22:47:26.199Z,12.25
2023-03-19T22:49:53.971Z,12.21
2023-03-19T22:52:22.363Z,12.20
2023-03-19T22:54:53.100Z,12.18
2023-03-19T22:57:20.909Z,12.20
2023-03-19T22:59:49.050Z,12.18
2023-03-19T23:02:18.216Z,12.17
2023-03-19T23:04:46.980Z,12.26
2023-03-19T23:07:15.586Z,12.20
2023-03-19T23:09:43.582Z,12.13
2023-03-19T23:12:13.741Z,12.02
2023-03-19T23:14:41.570Z,11.97
2023-03-19T23:17:19.761Z,11.99
2023-03-19T23:19:48.513Z,12.05
2023-03-19T23:22:17.364Z,12.14
2023-03-19T23:24:45.514Z,12.15
2023-03-19T23:27:25.206Z,12.27
2023-03-19T23:29:53.702Z,12.33
2023-03-19T23:32:22.024Z,12.31
2023-03-19T23:34:59.563Z,12.19
2023-03-19T23:37:29.200Z,12.09
2023-03-19T23:39:57.965Z,12.03
2023-03-19T23:42:29.698Z,11.96
2023-03-19T23:45:03.677Z,12.04
2023-03-19T23:47:31.829Z,12.00
2023-03-19T23:49:59.984Z,11.99
2023-03-19T23:52:27.752Z,12.03
2023-03-19T23:54:57.053Z,11.93
2023-03-19T23:57:26.977Z,12.00
2023-03-19T23:59:55.848Z,12.06
